Terminal Aerodrome Forecast
Issued by NWS

Home | Current Version | Previous Version | Text Only | Print | Product List | Glossary On
Versions: 1 2 3 4 5 6 7 8 9 10 11 12 13 14 15 16 17 18 19 20 21
000
FTUS43 KTOP 050500
TAFFOE
TAF
KFOE 050520Z 0506/0606 VRB07KT P6SM VCTS BKN050CB
     FM050800 17007KT P6SM SCT050
     FM051600 17016G24KT P6SM SCT050
     FM060100 14010KT P6SM SCT050=

USA.gov is the U.S. government's official web portal to all federal, state and local government web resources and services.